createdAt,value
2018-11-25T00:01:01.653Z,18.17
2018-11-25T00:03:30.027Z,17.67
2018-11-25T00:05:58.675Z,17.53
2018-11-25T00:08:26.848Z,17.77
2018-11-25T00:10:54.823Z,18.07
2018-11-25T00:13:22.983Z,18.13
2018-11-25T00:15:50.935Z,17.90
2018-11-25T00:18:19.288Z,17.90
2018-11-25T00:20:47.959Z,18.40
2018-11-25T00:23:15.895Z,18.17
2018-11-25T00:25:45.070Z,18.27
2018-11-25T00:28:13.244Z,17.60
2018-11-25T00:30:41.579Z,16.67
2018-11-25T00:33:10.587Z,19.10
2018-11-25T00:35:39.054Z,18.33
2018-11-25T00:38:08.168Z,17.80
2018-11-25T00:40:36.831Z,20.00
2018-11-25T00:43:06.379Z,19.43
2018-11-25T00:45:34.626Z,19.27
2018-11-25T00:48:02.660Z,18.63
2018-11-25T00:50:32.201Z,19.47
2018-11-25T00:53:01.117Z,17.57
2018-11-25T00:55:29.549Z,19.67
2018-11-25T00:57:57.963Z,19.77
2018-11-25T01:00:26.643Z,19.43
2018-11-25T01:02:55.620Z,18.87
2018-11-25T01:05:24.294Z,18.27
2018-11-25T01:07:52.447Z,18.07
2018-11-25T01:10:20.716Z,16.13
2018-11-25T01:12:49.084Z,17.83
2018-11-25T01:15:17.379Z,18.33
2018-11-25T01:17:46.342Z,18.13
2018-11-25T01:20:18.791Z,16.80
2018-11-25T01:22:46.702Z,15.80
2018-11-25T01:25:15.201Z,16.07
2018-11-25T01:27:44.266Z,15.87
2018-11-25T01:30:13.644Z,16.33
2018-11-25T01:32:41.566Z,15.97
2018-11-25T01:35:10.556Z,15.90
2018-11-25T01:37:39.433Z,15.97
2018-11-25T01:40:13.431Z,14.13
2018-11-25T01:42:42.300Z,14.63
2018-11-25T01:45:12.204Z,16.07
2018-11-25T01:47:40.378Z,16.40
2018-11-25T01:50:12.465Z,16.53
2018-11-25T01:52:41.618Z,15.90
2018-11-25T01:55:11.971Z,17.20
2018-11-25T01:57:40.299Z,17.13
2018-11-25T02:00:15.385Z,17.33
2018-11-25T02:02:44.158Z,17.37
2018-11-25T02:05:13.191Z,16.43
2018-11-25T02:07:41.563Z,16.67
2018-11-25T02:10:14.744Z,16.90
2018-11-25T02:12:43.223Z,16.60
2018-11-25T02:15:12.385Z,16.40
2018-11-25T02:17:41.594Z,18.10
2018-11-25T02:20:13.271Z,17.50
2018-11-25T02:22:41.195Z,17.50
2018-11-25T02:25:09.441Z,16.10
2018-11-25T02:27:37.387Z,17.90
2018-11-25T02:30:08.272Z,17.33
2018-11-25T02:32:36.519Z,17.73
2018-11-25T02:35:06.269Z,16.53
2018-11-25T02:37:34.243Z,16.03
2018-11-25T02:40:02.200Z,16.93
2018-11-25T02:42:30.443Z,16.63
2018-11-25T02:44:59.717Z,17.37
2018-11-25T02:47:28.292Z,19.03
2018-11-25T02:49:57.907Z,16.87
2018-11-25T02:52:26.408Z,17.57
2018-11-25T02:54:54.351Z,17.10
2018-11-25T02:57:23.505Z,17.87
2018-11-25T02:59:53.368Z,16.80
2018-11-25T03:02:23.618Z,16.63
2018-11-25T03:04:54.051Z,17.93
2018-11-25T03:07:21.983Z,17.37
2018-11-25T03:09:50.439Z,17.47
2018-11-25T03:12:18.596Z,18.23
2018-11-25T03:14:46.527Z,17.63
2018-11-25T03:17:15.451Z,17.83
2018-11-25T03:19:43.468Z,20.13
2018-11-25T03:22:12.283Z,19.37
2018-11-25T03:24:40.523Z,19.27
2018-11-25T03:27:08.586Z,21.57
2018-11-25T03:29:36.532Z,22.17
2018-11-25T03:32:04.702Z,24.43
2018-11-25T03:34:32.882Z,25.70
2018-11-25T03:37:02.257Z,23.03
2018-11-25T03:39:30.694Z,22.60
2018-11-25T03:41:59.312Z,20.97
2018-11-25T03:44:27.590Z,30.97
2018-11-25T03:46:55.746Z,27.70
2018-11-25T03:49:24.310Z,24.70
2018-11-25T03:51:52.491Z,27.57
2018-11-25T03:54:20.650Z,27.87
2018-11-25T03:56:48.571Z,28.13
2018-11-25T03:59:17.096Z,26.77
2018-11-25T04:01:46.440Z,25.23
2018-11-25T04:04:15.727Z,22.60
2018-11-25T04:06:45.203Z,19.37
2018-11-25T04:09:13.528Z,25.83
2018-11-25T04:11:42.007Z,26.73
2018-11-25T04:14:10.288Z,26.97
2018-11-25T04:16:38.238Z,26.80
2018-11-25T04:19:07.371Z,24.00
2018-11-25T04:21:35.979Z,20.33
2018-11-25T04:24:04.188Z,21.37
2018-11-25T04:26:33.002Z,24.20
2018-11-25T04:29:01.334Z,22.50
2018-11-25T04:31:29.275Z,19.00
2018-11-25T04:33:57.932Z,21.17
2018-11-25T04:36:26.151Z,22.10
2018-11-25T04:38:54.447Z,20.83
2018-11-25T04:41:22.630Z,20.63
2018-11-25T04:43:51.508Z,24.17
2018-11-25T04:46:20.526Z,21.90
2018-11-25T04:48:48.713Z,19.63
2018-11-25T04:51:16.984Z,19.07
2018-11-25T04:53:45.305Z,18.73
2018-11-25T04:56:14.783Z,17.53
2018-11-25T04:58:42.962Z,16.87
2018-11-25T05:01:11.245Z,17.87
2018-11-25T05:03:39.396Z,16.53
2018-11-25T05:06:07.654Z,15.73
2018-11-25T05:08:35.643Z,15.87
2018-11-25T05:11:03.894Z,15.63
2018-11-25T05:13:32.067Z,15.63
2018-11-25T05:16:00.246Z,15.47
2018-11-25T05:18:28.951Z,14.57
2018-11-25T05:20:57.238Z,14.83
2018-11-25T05:23:27.339Z,15.73
2018-11-25T05:25:55.314Z,17.03
2018-11-25T05:28:23.267Z,14.90
2018-11-25T05:30:52.387Z,14.70
2018-11-25T05:33:20.738Z,18.13
2018-11-25T05:35:49.589Z,18.63
2018-11-25T05:38:18.003Z,22.17
2018-11-25T05:40:46.334Z,17.33
2018-11-25T05:43:15.380Z,16.93
2018-11-25T05:45:43.834Z,18.23
2018-11-25T05:48:12.896Z,17.60
2018-11-25T05:50:40.990Z,18.13
2018-11-25T05:53:08.918Z,18.77
2018-11-25T05:55:37.169Z,20.27
2018-11-25T05:58:05.434Z,20.60
2018-11-25T06:00:34.468Z,18.03
2018-11-25T06:03:03.043Z,18.20
2018-11-25T06:05:31.487Z,17.30
2018-11-25T06:07:59.730Z,16.40
2018-11-25T06:10:27.887Z,19.90
2018-11-25T06:12:56.066Z,17.67
2018-11-25T06:15:24.436Z,18.30
2018-11-25T06:17:52.728Z,16.93
2018-11-25T06:20:21.797Z,17.10
2018-11-25T06:22:50.007Z,17.50
2018-11-25T06:25:19.282Z,17.10
2018-11-25T06:27:48.171Z,16.33
2018-11-25T06:30:16.642Z,18.47
2018-11-25T06:32:44.814Z,17.37
2018-11-25T06:35:14.367Z,19.77
2018-11-25T06:37:43.076Z,17.83
2018-11-25T06:40:13.360Z,17.93
2018-11-25T06:42:41.294Z,20.13
2018-11-25T06:45:10.356Z,19.33
2018-11-25T06:47:38.243Z,22.70
2018-11-25T06:50:08.556Z,19.32
2018-11-25T06:52:36.827Z,19.67
2018-11-25T06:55:05.486Z,19.92
2018-11-25T06:57:34.331Z,23.20
2018-11-25T07:00:02.503Z,20.08
2018-11-25T07:02:31.719Z,21.48
2018-11-25T07:04:59.808Z,18.87
2018-11-25T07:07:27.984Z,19.27
2018-11-25T07:09:56.643Z,20.17
2018-11-25T07:12:24.809Z,21.05
2018-11-25T07:14:53.009Z,20.62
2018-11-25T07:17:20.956Z,20.62
2018-11-25T07:19:49.189Z,18.98
2018-11-25T07:22:17.113Z,20.25
2018-11-25T07:24:45.078Z,18.95
2018-11-25T07:27:13.031Z,20.17
2018-11-25T07:29:41.202Z,19.12
2018-11-25T07:32:09.956Z,19.25
2018-11-25T07:34:38.132Z,20.43
2018-11-25T07:37:06.428Z,19.23
2018-11-25T07:39:34.685Z,19.52
2018-11-25T07:42:03.740Z,20.08
2018-11-25T07:44:32.086Z,19.98
2018-11-25T07:47:00.831Z,20.10
2018-11-25T07:49:29.828Z,17.50
2018-11-25T07:51:58.581Z,20.53
2018-11-25T07:54:27.679Z,20.10
2018-11-25T07:56:55.758Z,22.17
2018-11-25T07:59:25.356Z,20.90
2018-11-25T08:01:53.679Z,21.50
2018-11-25T08:04:22.511Z,20.20
2018-11-25T08:06:51.288Z,19.60
2018-11-25T08:09:19.996Z,19.43
2018-11-25T08:11:48.466Z,21.07
2018-11-25T08:14:17.894Z,22.27
2018-11-25T08:16:46.012Z,22.90
2018-11-25T08:19:14.276Z,24.55
2018-11-25T08:21:42.854Z,25.80
2018-11-25T08:24:11.905Z,23.80
2018-11-25T08:26:40.185Z,22.93
2018-11-25T08:29:09.164Z,23.77
2018-11-25T08:31:37.796Z,23.67
2018-11-25T08:34:06.398Z,24.40
2018-11-25T08:36:35.869Z,24.77
2018-11-25T08:39:07.114Z,24.90
2018-11-25T08:41:35.839Z,23.13
2018-11-25T08:44:04.214Z,23.70
2018-11-25T08:46:32.468Z,26.50
2018-11-25T08:49:00.667Z,26.40
2018-11-25T08:51:28.650Z,29.53
2018-11-25T08:53:57.227Z,27.83
2018-11-25T08:56:26.837Z,28.80
2018-11-25T08:58:55.090Z,29.00
2018-11-25T09:01:23.268Z,31.43
2018-11-25T09:03:51.443Z,32.53
2018-11-25T09:06:19.616Z,31.53
2018-11-25T09:08:47.591Z,31.00
2018-11-25T09:11:15.746Z,28.60
2018-11-25T09:13:43.925Z,30.43
2018-11-25T09:16:12.707Z,40.03
2018-11-25T09:18:40.907Z,38.10
2018-11-25T09:21:09.821Z,36.57
2018-11-25T09:23:38.986Z,35.17
2018-11-25T09:26:06.941Z,30.27
2018-11-25T09:28:35.342Z,30.93
2018-11-25T09:31:03.526Z,33.03
2018-11-25T09:33:32.197Z,29.60
2018-11-25T09:36:00.534Z,30.33
2018-11-25T09:38:28.718Z,30.13
2018-11-25T09:40:59.312Z,30.87
2018-11-25T09:43:25.196Z,28.87
2018-11-25T09:45:53.985Z,28.57
2018-11-25T09:48:22.987Z,28.67
2018-11-25T09:50:51.238Z,28.50
2018-11-25T09:53:19.153Z,27.00
2018-11-25T09:55:47.790Z,26.20
2018-11-25T09:58:15.915Z,25.97
2018-11-25T10:00:44.423Z,25.80
2018-11-25T10:03:12.603Z,25.27
2018-11-25T10:05:41.092Z,25.97
2018-11-25T10:08:09.411Z,25.03
2018-11-25T10:10:37.692Z,24.13
2018-11-25T10:13:06.759Z,23.87
2018-11-25T10:15:35.319Z,24.10
2018-11-25T10:18:03.325Z,24.30
2018-11-25T10:20:32.158Z,22.70
2018-11-25T10:23:00.355Z,23.07
2018-11-25T10:25:28.524Z,22.57
2018-11-25T10:27:56.698Z,22.83
2018-11-25T10:30:25.605Z,22.37
2018-11-25T10:32:55.627Z,21.23
2018-11-25T10:35:24.611Z,22.17
2018-11-25T10:37:53.062Z,22.00
2018-11-25T10:40:22.290Z,21.03
2018-11-25T10:42:50.941Z,20.07
2018-11-25T10:45:24.383Z,21.23
2018-11-25T10:47:52.949Z,19.70
2018-11-25T10:50:21.025Z,19.63
2018-11-25T10:52:49.317Z,19.07
2018-11-25T10:55:18.511Z,18.47
2018-11-25T10:57:47.960Z,17.07
2018-11-25T11:00:24.655Z,16.70
2018-11-25T11:03:59.041Z,16.37
2018-11-25T11:06:33.633Z,15.40
2018-11-25T11:09:01.777Z,14.73
2018-11-25T11:11:31.294Z,13.40
2018-11-25T11:13:59.497Z,13.00
2018-11-25T11:16:28.076Z,12.00
2018-11-25T11:18:56.346Z,11.57
2018-11-25T11:21:24.977Z,12.23
2018-11-25T11:23:53.194Z,12.27
2018-11-25T11:26:25.930Z,10.63
2018-11-25T11:28:54.422Z,9.67
2018-11-25T11:31:22.674Z,9.90
2018-11-25T11:33:51.935Z,10.60
2018-11-25T11:36:20.350Z,10.30
2018-11-25T11:38:49.097Z,10.63
2018-11-25T11:41:17.872Z,10.33
2018-11-25T11:43:47.036Z,10.03
2018-11-25T11:46:14.997Z,9.40
2018-11-25T11:48:42.974Z,10.20
2018-11-25T11:51:11.174Z,8.97
2018-11-25T11:53:39.246Z,8.97
2018-11-25T11:56:08.059Z,7.97
2018-11-25T11:58:36.829Z,7.87
2018-11-25T12:01:05.797Z,9.13
2018-11-25T12:03:34.319Z,8.57
2018-11-25T12:06:02.559Z,8.10
2018-11-25T12:08:30.823Z,8.40
2018-11-25T12:10:59.114Z,8.00
2018-11-25T12:13:28.146Z,7.73
2018-11-25T12:15:57.019Z,8.10
2018-11-25T12:18:25.251Z,9.10
2018-11-25T12:20:53.351Z,8.57
2018-11-25T12:23:22.405Z,8.33
2018-11-25T12:25:50.721Z,9.33
2018-11-25T12:28:19.650Z,7.73
2018-11-25T12:30:47.882Z,9.27
2018-11-25T12:33:15.829Z,9.33
2018-11-25T12:35:44.227Z,8.20
2018-11-25T12:38:12.935Z,8.63
2018-11-25T12:40:41.126Z,8.37
2018-11-25T12:43:10.038Z,9.00
2018-11-25T12:45:38.264Z,8.73
2018-11-25T12:48:06.757Z,8.67
2018-11-25T12:50:35.010Z,7.97
2018-11-25T12:53:03.221Z,7.70
2018-11-25T12:55:31.920Z,8.00
2018-11-25T12:57:59.883Z,8.03
2018-11-25T13:00:37.169Z,8.13
2018-11-25T13:03:07.011Z,8.87
2018-11-25T13:05:35.235Z,8.57
2018-11-25T13:08:03.586Z,7.87
2018-11-25T13:10:32.274Z,7.47
2018-11-25T13:13:00.468Z,8.40
2018-11-25T13:15:29.128Z,8.30
2018-11-25T13:17:57.301Z,8.70
2018-11-25T13:20:25.642Z,8.90
2018-11-25T13:22:53.713Z,9.40
2018-11-25T13:25:22.412Z,10.00
2018-11-25T13:27:50.741Z,9.60
2018-11-25T13:30:21.223Z,9.63
2018-11-25T13:32:51.130Z,9.13
2018-11-25T13:35:19.668Z,9.90
2018-11-25T13:37:47.694Z,9.47
2018-11-25T13:40:17.637Z,10.07
2018-11-25T13:42:46.887Z,8.90
2018-11-25T13:45:15.991Z,8.70
2018-11-25T13:47:43.912Z,9.67
2018-11-25T13:50:13.229Z,9.67
2018-11-25T13:52:42.490Z,10.30
2018-11-25T13:55:27.761Z,9.23
2018-11-25T13:57:55.730Z,9.03
2018-11-25T14:00:55.527Z,9.50
2018-11-25T14:03:40.598Z,8.23
2018-11-25T14:06:13.347Z,8.27
2018-11-25T14:08:42.829Z,7.40
2018-11-25T14:11:13.492Z,7.97
2018-11-25T14:13:41.688Z,6.07
2018-11-25T14:16:16.111Z,5.90
2018-11-25T14:18:44.760Z,5.33
2018-11-25T14:21:13.151Z,6.60
2018-11-25T14:23:42.512Z,5.50
2018-11-25T14:26:15.571Z,6.60
2018-11-25T14:28:44.807Z,6.47
2018-11-25T14:31:14.105Z,5.67
2018-11-25T14:33:42.458Z,5.23
2018-11-25T14:36:10.726Z,5.30
2018-11-25T14:38:39.278Z,6.63
2018-11-25T14:41:07.496Z,6.17
2018-11-25T14:43:35.705Z,5.20
2018-11-25T14:46:04.168Z,5.70
2018-11-25T14:48:32.401Z,5.47
2018-11-25T14:51:00.648Z,5.70
2018-11-25T14:53:29.120Z,4.73
2018-11-25T14:55:57.704Z,5.07
2018-11-25T14:58:25.882Z,5.57
2018-11-25T15:00:53.819Z,6.30
2018-11-25T15:03:21.995Z,5.60
2018-11-25T15:05:50.261Z,7.20
2018-11-25T15:08:24.940Z,8.47
2018-11-25T15:10:53.189Z,10.60
2018-11-25T15:13:22.404Z,19.50
2018-11-25T15:15:51.421Z,15.10
2018-11-25T15:18:19.574Z,10.87
2018-11-25T15:20:48.233Z,11.43
2018-11-25T15:23:17.062Z,11.10
2018-11-25T15:25:51.061Z,10.90
2018-11-25T15:28:17.961Z,11.40
2018-11-25T15:30:46.328Z,15.70
2018-11-25T15:33:14.757Z,14.77
2018-11-25T15:35:43.402Z,12.40
2018-11-25T15:38:12.374Z,16.87
2018-11-25T15:40:41.790Z,16.70
2018-11-25T15:43:10.981Z,19.07
2018-11-25T15:45:39.394Z,23.50
2018-11-25T15:48:10.113Z,21.50
2018-11-25T15:50:38.083Z,29.40
2018-11-25T15:53:06.758Z,23.13
2018-11-25T15:55:35.379Z,17.60
2018-11-25T15:58:04.068Z,18.23
2018-11-25T16:00:32.518Z,21.07
2018-11-25T16:03:00.730Z,19.30
2018-11-25T16:05:29.538Z,19.40
2018-11-25T16:07:57.967Z,17.90
2018-11-25T16:10:26.249Z,19.43
2018-11-25T16:12:55.249Z,18.10
2018-11-25T16:15:24.062Z,29.00
2018-11-25T16:17:52.711Z,21.63
2018-11-25T16:20:24.096Z,19.27
2018-11-25T16:22:53.751Z,17.57
2018-11-25T16:25:23.422Z,18.10
2018-11-25T16:27:52.315Z,17.80
2018-11-25T16:30:20.876Z,16.40
2018-11-25T16:32:49.446Z,12.73
2018-11-25T16:35:17.631Z,13.37
2018-11-25T16:37:46.046Z,14.87
2018-11-25T16:40:15.595Z,13.37
2018-11-25T16:42:43.819Z,12.33
2018-11-25T16:45:13.265Z,12.80
2018-11-25T16:47:41.373Z,13.03
2018-11-25T16:50:09.991Z,13.80
2018-11-25T16:52:38.245Z,13.87
2018-11-25T16:55:08.859Z,14.77
2018-11-25T16:57:37.106Z,15.83
2018-11-25T17:00:18.707Z,14.80
2018-11-25T17:02:47.086Z,13.70
2018-11-25T17:05:20.958Z,17.80
2018-11-25T17:07:49.742Z,18.83
2018-11-25T17:10:18.003Z,16.50
2018-11-25T17:12:46.997Z,15.20
2018-11-25T17:15:21.617Z,17.53
2018-11-25T17:17:50.599Z,16.60
2018-11-25T17:20:19.397Z,15.70
2018-11-25T17:22:48.527Z,17.95
2018-11-25T17:25:17.114Z,19.17
2018-11-25T17:27:46.379Z,15.60
2018-11-25T17:30:18.756Z,15.53
2018-11-25T17:32:48.395Z,15.47
2018-11-25T17:35:18.880Z,17.40
2018-11-25T17:37:47.278Z,14.67
2018-11-25T17:40:16.243Z,16.43
2018-11-25T17:42:44.811Z,14.40
2018-11-25T17:45:13.167Z,15.70
2018-11-25T17:47:41.628Z,15.27
2018-11-25T17:50:11.825Z,13.97
2018-11-25T17:52:40.075Z,14.67
2018-11-25T17:55:10.050Z,13.70
2018-11-25T17:57:38.242Z,14.20
2018-11-25T18:00:14.423Z,14.63
2018-11-25T18:02:43.013Z,14.70
2018-11-25T18:05:11.744Z,14.20
2018-11-25T18:07:39.717Z,15.17
2018-11-25T18:10:09.958Z,15.67
2018-11-25T18:12:38.291Z,15.53
2018-11-25T18:15:09.183Z,15.97
2018-11-25T18:17:37.533Z,16.20
2018-11-25T18:20:06.531Z,16.40
2018-11-25T18:22:35.726Z,17.77
2018-11-25T18:25:03.950Z,26.43
2018-11-25T18:27:31.933Z,26.97
2018-11-25T18:30:00.122Z,30.40
2018-11-25T18:32:28.463Z,24.87
2018-11-25T18:34:56.546Z,21.20
2018-11-25T18:37:25.024Z,22.57
2018-11-25T18:39:55.386Z,31.00
2018-11-25T18:42:23.807Z,33.63
2018-11-25T18:44:52.070Z,28.83
2018-11-25T18:47:20.195Z,25.17
2018-11-25T18:49:48.387Z,22.00
2018-11-25T18:52:16.607Z,21.90
2018-11-25T18:54:48.244Z,17.20
2018-11-25T18:57:16.423Z,17.50
2018-11-25T18:59:44.363Z,19.30
2018-11-25T19:02:17.524Z,16.97
2018-11-25T19:04:45.476Z,24.47
2018-11-25T19:07:13.650Z,23.40
2018-11-25T19:09:41.903Z,31.33
2018-11-25T19:12:10.795Z,33.03
2018-11-25T19:14:39.149Z,25.70
2018-11-25T19:17:07.078Z,24.63
2018-11-25T19:19:35.173Z,26.60
2018-11-25T19:22:03.895Z,24.53
2018-11-25T19:24:31.859Z,26.03
2018-11-25T19:26:59.944Z,26.93
2018-11-25T19:29:28.845Z,34.47
2018-11-25T19:31:57.015Z,26.67
2018-11-25T19:34:25.160Z,30.33
2018-11-25T19:36:53.358Z,31.87
2018-11-25T19:39:21.556Z,24.33
2018-11-25T19:41:49.736Z,22.93
2018-11-25T19:44:18.322Z,22.37
2018-11-25T19:46:46.854Z,21.13
2018-11-25T19:49:15.655Z,22.90
2018-11-25T19:51:43.610Z,25.83
2018-11-25T19:54:11.563Z,24.00
2018-11-25T19:56:39.726Z,23.90
2018-11-25T19:59:07.658Z,22.33
2018-11-25T20:01:35.860Z,21.63
2018-11-25T20:04:04.401Z,23.60
2018-11-25T20:06:32.561Z,25.20
2018-11-25T20:09:00.960Z,23.50
2018-11-25T20:11:29.182Z,23.30
2018-11-25T20:13:57.135Z,24.43
2018-11-25T20:16:30.517Z,20.77
2018-11-25T20:18:59.033Z,18.47
2018-11-25T20:22:33.622Z,18.30
2018-11-25T20:25:02.401Z,18.00
2018-11-25T20:27:36.878Z,17.57
2018-11-25T20:30:09.012Z,17.20
2018-11-25T20:32:42.744Z,18.33
2018-11-25T20:35:10.926Z,18.93
2018-11-25T20:37:44.677Z,19.00
2018-11-25T20:40:12.867Z,19.43
2018-11-25T20:42:41.316Z,19.53
2018-11-25T20:45:15.504Z,19.23
2018-11-25T20:47:43.751Z,20.13
2018-11-25T20:50:12.002Z,18.97
2018-11-25T20:52:46.211Z,22.07
2018-11-25T20:55:14.426Z,19.97
2018-11-25T20:57:42.602Z,21.27
2018-11-25T21:00:16.309Z,21.10
2018-11-25T21:02:44.714Z,20.97
2018-11-25T21:05:13.879Z,20.53
2018-11-25T21:07:42.190Z,20.37
2018-11-25T21:10:13.603Z,19.97
2018-11-25T21:12:42.759Z,19.43
2018-11-25T21:15:11.499Z,19.27
2018-11-25T21:17:40.165Z,20.90
2018-11-25T21:20:11.715Z,19.10
2018-11-25T21:22:40.464Z,18.57
2018-11-25T21:25:11.450Z,19.00
2018-11-25T21:27:39.527Z,18.27
2018-11-25T21:30:16.730Z,17.77
2018-11-25T21:32:45.951Z,19.27
2018-11-25T21:35:14.696Z,19.93
2018-11-25T21:37:42.989Z,19.37
2018-11-25T21:40:13.491Z,19.83
2018-11-25T21:42:41.840Z,19.00
2018-11-25T21:45:11.670Z,19.77
2018-11-25T21:47:40.010Z,20.73
2018-11-25T21:50:11.980Z,21.17
2018-11-25T21:52:40.058Z,20.83
2018-11-25T21:55:09.993Z,19.87
2018-11-25T21:57:38.255Z,21.47
2018-11-25T22:00:11.049Z,21.83
2018-11-25T22:02:39.573Z,22.23
2018-11-25T22:05:09.111Z,21.87
2018-11-25T22:07:37.393Z,23.07
2018-11-25T22:10:08.161Z,23.73
2018-11-25T22:12:37.419Z,24.17
2018-11-25T22:15:08.215Z,25.70
2018-11-25T22:17:36.767Z,23.03
2018-11-25T22:20:07.618Z,24.57
2018-11-25T22:22:35.942Z,25.33
2018-11-25T22:25:04.773Z,28.07
2018-11-25T22:27:33.195Z,26.90
2018-11-25T22:30:01.523Z,25.70
2018-11-25T22:32:29.916Z,26.27
2018-11-25T22:34:58.276Z,25.27
2018-11-25T22:37:26.670Z,27.67
2018-11-25T22:39:55.302Z,25.40
2018-11-25T22:42:23.513Z,27.17
2018-11-25T22:44:51.854Z,25.07
2018-11-25T22:47:20.271Z,24.90
2018-11-25T22:49:48.654Z,25.23
2018-11-25T22:52:17.159Z,25.27
2018-11-25T22:54:45.249Z,26.07
2018-11-25T22:57:13.431Z,25.27
2018-11-25T22:59:42.322Z,25.60
2018-11-25T23:02:10.740Z,24.97
2018-11-25T23:04:50.597Z,24.93
2018-11-25T23:07:18.850Z,26.47
2018-11-25T23:09:47.735Z,25.07
2018-11-25T23:12:16.728Z,25.10
2018-11-25T23:14:45.258Z,26.67
2018-11-25T23:17:13.834Z,26.37
2018-11-25T23:19:41.869Z,25.83
2018-11-25T23:22:10.160Z,27.10
2018-11-25T23:24:38.877Z,27.07
2018-11-25T23:27:07.528Z,26.30
2018-11-25T23:29:35.966Z,26.63
2018-11-25T23:32:04.794Z,25.27
2018-11-25T23:34:32.794Z,25.70
2018-11-25T23:37:01.698Z,25.57
2018-11-25T23:39:30.043Z,25.17
2018-11-25T23:41:58.393Z,25.73
2018-11-25T23:44:27.267Z,25.37
2018-11-25T23:46:55.737Z,25.40
2018-11-25T23:49:24.357Z,25.73
2018-11-25T23:51:52.562Z,25.00
2018-11-25T23:54:20.823Z,26.37
2018-11-25T23:56:48.990Z,26.00
2018-11-25T23:59:17.337Z,27.63
